Time;durP1;ratioP1;P1;durP2;ratioP2;P2;SDS_P1;SDS_P2;PMS_P1;PMS_P2;Temp;Humidity;BMP_temperature;BMP_pressure;BME280_temperature;BME280_humidity;BME280_pressure;Samples;Min_cycle;Max_cycle;Signal;HPM_P1;HPM_P2
2021/06/03 00:00:16;;;;;;;7.25;2.58;;;;;;;13.96;55.44;99724.44;1781186;78;20924;-41
2021/06/03 00:02:45;;;;;;;8.33;3.00;;;;;;;13.95;55.49;99729.68;1727374;82;21568;-41
2021/06/03 00:05:11;;;;;;;8.80;3.00;;;;;;;13.91;55.58;99724.20;1724971;80;21017;-41
2021/06/03 00:07:38;;;;;;;5.30;2.70;;;;;;;13.88;55.65;99714.62;1751607;79;21049;-41
2021/06/03 00:10:07;;;;;;;8.70;2.75;;;;;;;13.87;55.68;99724.74;1758818;79;21535;-41
2021/06/03 00:12:35;;;;;;;6.67;2.90;;;;;;;13.85;55.89;99722.16;1742702;80;21029;-41
2021/06/03 00:15:01;;;;;;;5.83;3.33;;;;;;;13.84;55.76;99717.89;1737291;80;21550;-41
2021/06/03 00:17:28;;;;;;;9.08;3.20;;;;;;;13.81;55.96;99724.07;1723498;81;20950;-41
2021/06/03 00:19:55;;;;;;;7.58;3.30;;;;;;;13.79;56.01;99729.91;1720676;81;21058;-41
2021/06/03 00:22:22;;;;;;;4.25;2.90;;;;;;;13.78;56.05;99728.91;1730504;81;21970;-41
2021/06/03 00:24:49;;;;;;;6.15;2.92;;;;;;;13.75;55.98;99726.34;1711962;81;20974;-41
2021/06/03 00:27:16;;;;;;;5.85;3.00;;;;;;;13.72;56.06;99729.03;1714269;81;21682;-41
2021/06/03 00:29:47;;;;;;;10.18;2.80;;;;;;;13.70;56.40;99728.63;1711694;81;21010;-41
2021/06/03 00:32:13;;;;;;;5.85;2.67;;;;;;;13.67;56.33;99725.27;1712757;81;21002;-41
2021/06/03 00:34:41;;;;;;;3.98;2.80;;;;;;;13.66;56.45;99735.38;1712120;81;21208;-41
2021/06/03 00:37:07;;;;;;;5.17;2.80;;;;;;;13.66;56.49;99735.95;1713061;82;21596;-41
2021/06/03 00:39:35;;;;;;;7.45;3.15;;;;;;;13.63;56.73;99733.41;1724157;81;21010;-41
2021/06/03 00:42:01;;;;;;;9.78;3.20;;;;;;;13.62;56.81;99731.83;1714489;81;21081;-41
2021/06/03 00:44:29;;;;;;;7.40;2.55;;;;;;;13.60;56.71;99733.37;1716611;81;21093;-41
2021/06/03 00:46:56;;;;;;;9.45;3.20;;;;;;;13.57;56.79;99727.28;1712172;81;21141;-41
2021/06/03 00:49:23;;;;;;;5.45;2.87;;;;;;;13.52;56.92;99732.48;1712012;81;21481;-41
2021/06/03 00:51:49;;;;;;;3.85;2.72;;;;;;;13.49;56.91;99728.56;1713298;81;21046;-41
2021/06/03 00:54:17;;;;;;;5.45;3.30;;;;;;;13.48;57.13;99728.92;1711795;82;21596;-41
2021/06/03 00:56:46;;;;;;;5.65;2.87;;;;;;;13.45;57.26;99731.83;1712346;82;21002;-41
2021/06/03 00:59:13;;;;;;;4.95;2.90;;;;;;;13.44;57.38;99729.46;1714402;81;21234;-41
2021/06/03 01:01:41;;;;;;;5.50;2.77;;;;;;;13.41;57.37;99730.97;1713637;81;20941;-41
2021/06/03 01:04:09;;;;;;;4.67;2.72;;;;;;;13.40;57.56;99725.91;1704646;82;21108;-41
2021/06/03 01:06:36;;;;;;;8.68;2.98;;;;;;;13.37;57.65;99724.70;1716449;81;20982;-41
2021/06/03 01:09:18;;;;;;;7.33;2.92;;;;;;;13.36;57.62;99725.84;1714030;82;21019;-41
2021/06/03 01:12:11;;;;;;;5.08;2.85;;;;;;;13.35;57.68;99731.10;1708546;81;20974;-41
2021/06/03 01:14:43;;;;;;;6.70;2.77;;;;;;;13.32;57.83;99729.09;1717358;81;21018;-41
2021/06/03 01:17:10;;;;;;;10.68;2.90;;;;;;;13.31;58.00;99730.84;1725868;81;21596;-41
2021/06/03 01:19:41;;;;;;;4.97;2.75;;;;;;;13.28;58.02;99728.27;1737846;82;21125;-41
2021/06/03 01:22:40;;;;;;;4.85;3.02;;;;;;;13.26;58.19;99730.59;1777715;78;22159;-41
2021/06/03 01:25:11;;;;;;;4.53;2.80;;;;;;;13.25;58.20;99734.47;1779605;78;21738;-41
2021/06/03 01:27:38;;;;;;;6.72;3.10;;;;;;;13.20;58.29;99730.70;1782094;78;21487;-41
2021/06/03 01:30:27;;;;;;;5.42;2.77;;;;;;;13.17;58.43;99734.13;1780298;79;20912;-41
2021/06/03 01:32:59;;;;;;;;;;;;;;;13.14;58.50;99728.08;1782408;78;21012;-41
2021/06/03 01:35:30;;;;;;;7.83;3.00;;;;;;;13.10;58.48;99735.38;1785478;80;20174;-41
2021/06/03 01:37:57;;;;;;;4.42;3.05;;;;;;;12.99;58.84;99730.34;1781651;78;21210;-41
2021/06/03 01:40:28;;;;;;;4.40;2.80;;;;;;;12.98;58.84;99732.28;1775181;78;21514;-41
2021/06/03 01:42:54;;;;;;;7.65;3.12;;;;;;;13.01;58.90;99736.22;1784422;78;21019;-41
2021/06/03 01:45:22;;;;;;;6.00;2.58;;;;;;;13.00;58.89;99733.28;1791395;78;21088;-41
2021/06/03 01:47:50;;;;;;;4.58;2.80;;;;;;;12.98;58.83;99731.48;1781166;78;21069;-41
2021/06/03 01:50:18;;;;;;;6.80;3.10;;;;;;;12.97;58.77;99728.58;1781157;78;20909;-41
2021/06/03 01:52:47;;;;;;;9.33;2.72;;;;;;;12.97;58.73;99731.30;1782878;78;20965;-41
2021/06/03 01:55:15;;;;;;;6.22;3.02;;;;;;;12.96;58.84;99728.36;1777861;78;21017;-41
2021/06/03 01:57:44;;;;;;;6.42;2.95;;;;;;;12.94;58.92;99730.66;1786965;78;21005;-41
2021/06/03 02:00:16;;;;;;;6.70;3.20;;;;;;;12.92;58.82;99738.41;1750422;78;21040;-41
2021/06/03 02:02:51;;;;;;;6.20;3.10;;;;;;;12.88;58.99;99732.89;1783258;78;21843;-41
2021/06/03 02:05:20;;;;;;;6.53;3.40;;;;;;;12.85;58.94;99741.80;1791193;78;21097;-41
2021/06/03 02:07:47;;;;;;;6.83;2.87;;;;;;;12.83;59.08;99740.61;1780582;79;21056;-41
2021/06/03 02:10:15;;;;;;;5.70;2.90;;;;;;;12.82;59.17;99745.83;1780148;80;21534;-41
2021/06/03 02:12:48;;;;;;;5.77;3.40;;;;;;;12.79;59.18;99741.11;1782199;78;21020;-41
2021/06/03 02:15:15;;;;;;;11.60;3.27;;;;;;;12.76;59.39;99744.56;1712979;81;21592;-41
2021/06/03 02:17:47;;;;;;;5.42;2.80;;;;;;;12.75;59.30;99748.42;1698429;82;21068;-41
2021/06/03 02:20:17;;;;;;;4.08;2.70;;;;;;;12.78;59.21;99743.03;1741711;80;21539;-41
2021/06/03 02:22:46;;;;;;;6.95;3.50;;;;;;;12.87;59.11;99746.31;1736532;80;21524;-41
2021/06/03 02:25:14;;;;;;;6.17;3.37;;;;;;;12.89;59.12;99746.72;1765479;79;21091;-41
2021/06/03 02:27:44;;;;;;;6.33;3.10;;;;;;;12.91;59.01;99750.45;1761275;79;21210;-41
2021/06/03 02:30:14;;;;;;;9.18;3.05;;;;;;;12.92;58.91;99749.30;1761424;79;20983;-41
2021/06/03 02:32:41;;;;;;;3.45;3.00;;;;;;;12.92;58.74;99754.17;1751318;79;21492;-41
2021/06/03 02:35:12;;;;;;;7.55;2.92;;;;;;;12.92;58.72;99753.38;1751114;80;21024;-41
2021/06/03 02:37:41;;;;;;;5.37;3.12;;;;;;;12.92;58.73;99755.53;1755697;79;21527;-41
2021/06/03 02:40:19;;;;;;;4.50;3.07;;;;;;;12.95;58.76;99760.81;1750979;79;21113;-41
2021/06/03 02:42:47;;;;;;;6.65;2.80;;;;;;;12.93;58.78;99762.52;1750636;79;21404;-41
2021/06/03 02:45:20;;;;;;;4.95;3.02;;;;;;;12.89;58.74;99753.52;1757910;79;21554;-41
2021/06/03 02:47:48;;;;;;;7.58;3.20;;;;;;;12.88;58.91;99756.59;1760572;79;21033;-41
2021/06/03 02:50:16;;;;;;;8.00;3.58;;;;;;;12.88;58.83;99758.75;1750960;79;21033;-41
2021/06/03 02:52:44;;;;;;;6.15;3.08;;;;;;;12.88;58.96;99757.96;1740898;80;21052;-41
2021/06/03 02:55:16;;;;;;;8.03;3.40;;;;;;;12.87;58.93;99765.94;1752579;79;20941;-41
2021/06/03 02:57:45;;;;;;;4.78;2.92;;;;;;;12.88;59.03;99753.88;1735629;80;20981;-41
2021/06/03 03:00:21;;;;;;;5.53;3.40;;;;;;;12.86;59.16;99759.70;1734441;80;21736;-41
2021/06/03 03:02:49;;;;;;;5.22;3.05;;;;;;;12.87;59.09;99755.05;1737694;82;21553;-41
2021/06/03 03:05:17;;;;;;;5.70;2.92;;;;;;;12.87;59.10;99759.13;1748768;81;21141;-41
2021/06/03 03:07:44;;;;;;;6.22;3.17;;;;;;;12.87;59.14;99757.77;1740923;80;20904;-41
2021/06/03 03:10:15;;;;;;;6.75;3.00;;;;;;;12.86;59.23;99762.42;1743621;81;20884;-41
2021/06/03 03:12:42;;;;;;;6.70;3.30;;;;;;;12.86;59.28;99752.11;1741042;81;21083;-41
2021/06/03 03:15:13;;;;;;;;;;;;;;;12.87;59.31;99755.05;1733143;81;21003;-41
2021/06/03 03:17:41;;;;;;;5.53;3.17;;;;;;;12.88;59.41;99759.32;1737401;82;21109;-41
2021/06/03 03:20:11;;;;;;;5.80;3.60;;;;;;;12.81;59.40;99771.47;1765642;81;20997;-41
2021/06/03 03:22:41;;;;;;;5.87;3.25;;;;;;;12.85;59.28;99766.29;1748151;81;21021;-41
2021/06/03 03:25:10;;;;;;;6.75;3.25;;;;;;;12.92;58.95;99769.71;1737708;79;20932;-41
2021/06/03 03:27:38;;;;;;;7.25;2.87;;;;;;;12.96;58.99;99775.42;1781078;79;21024;-41
2021/06/03 03:30:07;;;;;;;5.85;3.47;;;;;;;13.02;58.84;99765.77;1780618;79;21141;-41
2021/06/03 03:32:35;;;;;;;7.53;3.12;;;;;;;13.08;58.55;99768.97;1780298;79;21144;-41
2021/06/03 03:35:03;;;;;;;9.38;3.37;;;;;;;13.16;58.76;99767.19;1781093;79;20999;-41
2021/06/03 03:37:30;;;;;;;7.10;3.00;;;;;;;13.22;58.37;99769.21;1779681;79;21076;-41
2021/06/03 03:39:57;;;;;;;6.35;3.30;;;;;;;13.30;58.64;99764.67;1781357;79;21591;-41
2021/06/03 03:42:24;;;;;;;6.20;2.92;;;;;;;13.34;57.94;99767.66;1783763;79;21145;-41
2021/06/03 03:44:52;;;;;;;7.65;3.20;;;;;;;13.42;58.10;99763.86;1782348;79;21508;-41
2021/06/03 03:47:19;;;;;;;5.03;3.05;;;;;;;13.48;57.90;99757.52;1778875;78;21373;-41
2021/06/03 03:49:47;;;;;;;7.33;2.60;;;;;;;13.24;57.34;99716.55;1784917;78;20993;-41
2021/06/03 03:52:16;;;;;;;5.92;2.80;;;;;;;13.62;57.05;99762.38;1782636;79;21048;-42
2021/06/03 03:54:43;;;;;;;8.40;3.08;;;;;;;13.68;57.59;99773.16;1780586;79;21075;-42
2021/06/03 03:57:10;;;;;;;6.85;3.10;;;;;;;13.73;57.19;99767.39;1781993;79;21844;-42
2021/06/03 03:59:38;;;;;;;6.53;3.10;;;;;;;13.79;56.76;99767.28;1776670;78;21523;-42
2021/06/03 04:02:06;;;;;;;7.28;3.15;;;;;;;13.86;57.08;99767.34;1785285;79;21471;-42
2021/06/03 04:04:33;;;;;;;4.30;3.02;;;;;;;13.92;56.72;99768.59;1748222;80;21020;-42
2021/06/03 04:07:00;;;;;;;5.85;3.30;;;;;;;13.99;56.69;99768.66;1782248;79;21085;-42
2021/06/03 04:09:29;;;;;;;4.97;3.25;;;;;;;14.05;56.58;99767.18;1785062;79;21320;-42
2021/06/03 04:11:56;;;;;;;8.20;3.12;;;;;;;14.12;56.22;99769.21;1780981;79;20924;-42
2021/06/03 04:14:23;;;;;;;4.65;3.20;;;;;;;14.16;56.35;99770.82;1783272;79;21151;-42
2021/06/03 04:16:50;;;;;;;6.55;3.37;;;;;;;14.23;56.29;99778.30;1783922;79;21586;-42
2021/06/03 04:19:19;;;;;;;6.58;2.80;;;;;;;14.29;56.14;99782.24;1800964;78;21142;-42
2021/06/03 04:21:46;;;;;;;4.83;3.22;;;;;;;14.35;55.86;99780.75;1797065;78;20953;-42
2021/06/03 04:24:13;;;;;;;6.47;3.15;;;;;;;14.39;55.60;99780.81;1789516;78;21085;-42
2021/06/03 04:26:40;;;;;;;5.58;3.00;;;;;;;14.46;56.29;99783.62;1797972;78;21503;-42
2021/06/03 04:29:07;;;;;;;5.33;2.90;;;;;;;14.52;55.84;99783.50;1791602;78;21495;-42
2021/06/03 04:33:30;;;;;;;5.05;3.25;;;;;;;14.71;55.63;99785.44;1860969;75;22596;-42
2021/06/03 04:35:57;;;;;;;6.65;3.17;;;;;;;14.73;55.46;99780.37;1833898;76;20958;-42
2021/06/03 04:38:24;;;;;;;7.35;3.72;;;;;;;14.80;55.23;99790.58;1809954;78;21134;-42
2021/06/03 04:40:51;;;;;;;4.58;3.10;;;;;;;14.87;55.46;99789.26;1836754;77;21557;-42
2021/06/03 04:43:18;;;;;;;6.60;3.00;;;;;;;14.93;55.14;99783.66;1829442;76;20952;-42
2021/06/03 04:45:44;;;;;;;8.05;2.98;;;;;;;14.99;54.64;99787.62;1831854;77;21025;-42
2021/06/03 04:48:11;;;;;;;5.97;3.02;;;;;;;15.05;55.04;99787.48;1839512;76;20952;-42
2021/06/03 04:50:38;;;;;;;6.00;2.72;;;;;;;15.14;55.00;99781.68;1855203;77;21118;-42
2021/06/03 04:53:06;;;;;;;3.42;2.70;;;;;;;15.25;54.58;99783.12;1851741;77;21542;-42
2021/06/03 04:55:33;;;;;;;6.78;2.83;;;;;;;15.32;53.74;99782.58;1843170;75;21007;-42
2021/06/03 04:58:00;;;;;;;11.57;3.20;;;;;;;15.40;54.00;99785.55;1824891;76;21497;-42
2021/06/03 05:00:30;;;;;;;4.83;2.75;;;;;;;15.49;54.25;99783.25;1857487;76;21063;-42
2021/06/03 05:02:57;;;;;;;8.50;3.00;;;;;;;15.59;53.80;99787.24;1838094;76;21115;-42
2021/06/03 05:05:25;;;;;;;7.45;2.98;;;;;;;15.67;53.90;99788.08;1827588;75;20921;-42
2021/06/03 05:07:54;;;;;;;5.72;3.42;;;;;;;15.75;53.65;99786.36;1845497;77;21548;-42
2021/06/03 05:10:21;;;;;;;4.95;3.00;;;;;;;15.84;53.95;99785.42;1846811;76;21002;-42
2021/06/03 05:12:48;;;;;;;4.72;3.10;;;;;;;15.91;53.37;99779.99;1859771;77;20999;-42
2021/06/03 05:15:17;;;;;;;7.17;2.92;;;;;;;16.00;53.38;99776.31;1840192;76;21059;-42
2021/06/03 05:17:44;;;;;;;4.92;2.83;;;;;;;16.09;52.35;99777.31;1816118;77;21071;-42
2021/06/03 05:20:14;;;;;;;2.65;2.42;;;;;;;16.17;52.50;99778.89;1818038;77;21007;-42
2021/06/03 05:22:42;;;;;;;;;;;;;;;16.26;52.81;99785.39;1842204;77;21087;-42
2021/06/03 05:25:12;;;;;;;4.55;2.72;;;;;;;16.32;52.16;99779.72;1847850;76;20170;-42
2021/06/03 05:27:39;;;;;;;6.65;2.60;;;;;;;16.31;52.39;99789.91;1839354;76;21109;-42
2021/06/03 05:30:08;;;;;;;4.15;2.65;;;;;;;16.38;51.50;99790.48;1822489;76;20943;-42
2021/06/03 05:32:35;;;;;;;5.45;2.95;;;;;;;16.46;50.85;99792.05;1839878;76;20929;-42
2021/06/03 05:35:04;;;;;;;5.65;2.70;;;;;;;16.56;50.34;99793.25;1827176;77;21515;-42
2021/06/03 05:37:31;;;;;;;4.53;2.80;;;;;;;16.67;50.83;99801.71;1827149;76;21051;-42
2021/06/03 05:39:58;;;;;;;6.00;2.70;;;;;;;16.77;50.48;99799.58;1841003;76;21914;-43
2021/06/03 05:42:25;;;;;;;6.45;2.98;;;;;;;16.89;50.55;99807.39;1832561;76;21006;-42
2021/06/03 05:44:52;;;;;;;5.37;2.80;;;;;;;16.99;49.58;99796.27;1837753;76;21017;-42
2021/06/03 05:47:19;;;;;;;5.03;2.83;;;;;;;17.11;49.75;99795.86;1814528;78;20922;-42
2021/06/03 05:49:47;;;;;;;4.72;2.77;;;;;;;17.23;50.50;99807.77;1818764;78;20998;-42
2021/06/03 05:52:13;;;;;;;6.28;2.60;;;;;;;17.34;49.42;99807.19;1825901;77;21807;-42
2021/06/03 05:54:42;;;;;;;7.95;2.52;;;;;;;17.44;49.27;99807.56;1828482;77;21001;-42
2021/06/03 05:57:09;;;;;;;4.67;2.60;;;;;;;17.52;49.42;99809.91;1835833;77;21008;-42
2021/06/03 05:59:36;;;;;;;4.97;2.52;;;;;;;17.60;48.32;99800.52;1825015;77;21020;-42
2021/06/03 06:02:07;;;;;;;9.18;2.80;;;;;;;17.67;47.22;99804.59;1841054;76;21003;-42
2021/06/03 06:07:04;;;;;;;4.35;2.33;;;;;;;17.81;46.95;99808.66;1849675;77;20171;-42
2021/06/03 06:09:33;;;;;;;6.95;2.50;;;;;;;17.80;47.12;99805.75;1833736;76;21007;-42
2021/06/03 06:12:00;;;;;;;9.20;2.70;;;;;;;17.87;46.79;99805.52;1837732;76;20995;-42
2021/06/03 06:14:26;;;;;;;5.67;2.60;;;;;;;17.93;46.62;99809.41;1841981;77;21499;-42
2021/06/03 06:16:54;;;;;;;5.15;2.80;;;;;;;17.98;46.23;99804.89;1858726;77;21116;-42
2021/06/03 06:19:20;;;;;;;4.12;2.62;;;;;;;18.04;45.99;99803.30;1842808;77;21523;-42
2021/06/03 06:21:47;;;;;;;6.33;2.62;;;;;;;18.09;45.82;99796.03;1826482;77;20923;-42
2021/06/03 06:24:13;;;;;;;6.37;2.75;;;;;;;18.14;46.16;99801.11;1826127;77;20935;-42
2021/06/03 06:26:40;;;;;;;5.72;2.40;;;;;;;18.19;46.06;99797.95;1825197;78;21072;-42
2021/06/03 06:29:09;;;;;;;5.20;2.67;;;;;;;18.26;45.69;99795.16;1837157;76;20862;-42
2021/06/03 06:31:36;;;;;;;13.95;2.85;;;;;;;18.36;44.90;99799.80;1820840;77;21067;-42
2021/06/03 06:34:02;;;;;;;6.28;2.80;;;;;;;18.43;44.98;99805.27;1841653;76;21056;-42
2021/06/03 06:36:30;;;;;;;8.68;2.75;;;;;;;18.51;44.16;99798.54;1832196;75;21085;-45
2021/06/03 06:38:56;;;;;;;5.87;2.60;;;;;;;18.58;43.92;99799.12;1881233;75;21560;-41
2021/06/03 06:41:23;;;;;;;2.92;2.12;;;;;;;18.64;44.00;99806.52;1874797;75;21113;-42
2021/06/03 06:43:50;;;;;;;3.27;2.37;;;;;;;18.68;43.86;99802.39;1828626;77;20945;-42
2021/06/03 06:46:16;;;;;;;3.50;2.20;;;;;;;18.72;44.30;99805.11;1825733;77;21046;-41
2021/06/03 06:48:44;;;;;;;3.80;2.30;;;;;;;18.80;43.38;99800.53;1825154;77;21554;-41
2021/06/03 06:51:11;;;;;;;2.85;2.00;;;;;;;18.90;43.04;99808.50;1827452;77;20996;-42
2021/06/03 06:53:38;;;;;;;6.90;2.17;;;;;;;18.96;41.82;99808.27;1821866;77;21118;-42
2021/06/03 06:56:06;;;;;;;3.55;2.10;;;;;;;19.01;41.23;99808.62;1821029;78;21067;-42
2021/06/03 06:58:33;;;;;;;3.47;2.20;;;;;;;19.05;42.55;99805.83;1825511;78;20904;-41
2021/06/03 07:01:02;;;;;;;5.25;2.12;;;;;;;19.08;40.12;99805.01;1810530;78;20960;-42
2021/06/03 07:03:28;;;;;;;2.60;1.90;;;;;;;19.12;40.74;99812.66;1758360;81;21051;-41
2021/06/03 07:05:55;;;;;;;2.87;1.98;;;;;;;19.22;40.97;99806.88;1743223;81;21827;-42
2021/06/03 07:08:22;;;;;;;4.40;2.08;;;;;;;19.31;40.90;99805.22;1772260;80;20985;-41
2021/06/03 07:10:50;;;;;;;8.08;2.27;;;;;;;19.42;39.90;99801.75;1778742;80;21001;-41
2021/06/03 07:13:17;;;;;;;8.80;2.30;;;;;;;19.49;38.83;99809.19;1775716;80;20972;-42
2021/06/03 07:15:44;;;;;;;7.72;2.40;;;;;;;19.52;39.01;99806.98;1778694;80;21091;-42
2021/06/03 07:18:11;;;;;;;3.10;1.85;;;;;;;19.56;40.50;99798.72;1757147;80;21150;-41
2021/06/03 07:20:37;;;;;;;4.95;2.10;;;;;;;19.60;39.62;99804.95;1773708;80;20918;-41
2021/06/03 07:23:05;;;;;;;7.60;2.12;;;;;;;19.67;38.60;99803.48;1774283;80;20941;-42
2021/06/03 07:25:37;;;;;;;5.95;2.20;;;;;;;19.76;39.11;99795.52;1775777;80;20998;-41
2021/06/03 07:28:05;;;;;;;4.45;2.62;;;;;;;19.87;37.99;99798.34;1811144;78;21012;-41
2021/06/03 07:30:32;;;;;;;7.90;2.15;;;;;;;19.94;38.71;99805.13;1813559;78;21730;-41
2021/06/03 07:33:00;;;;;;;5.40;2.02;;;;;;;19.98;38.33;99796.84;1781643;78;20948;-41
2021/06/03 07:35:28;;;;;;;5.42;2.10;;;;;;;20.03;37.23;99796.40;1779873;80;20981;-42
2021/06/03 07:37:56;;;;;;;2.98;2.20;;;;;;;20.08;35.67;99793.19;1784095;80;21008;-41
2021/06/03 07:40:27;;;;;;;4.20;1.90;;;;;;;20.09;36.45;99792.59;1770879;80;21069;-42
2021/06/03 07:42:54;;;;;;;6.08;1.90;;;;;;;20.14;38.00;99790.77;1787010;79;20960;-42
2021/06/03 07:45:25;;;;;;;7.10;2.30;;;;;;;20.24;37.75;99787.84;1770886;79;21004;-41
2021/06/03 07:47:53;;;;;;;;;;;;;;;20.34;37.06;99797.96;1791991;79;20949;-42
2021/06/03 07:50:20;;;;;;;4.33;2.05;;;;;;;20.49;36.35;99803.27;1783905;79;20222;-42
2021/06/03 07:52:47;;;;;;;3.15;1.80;;;;;;;20.50;35.84;99775.91;1779146;79;21467;-42
2021/06/03 07:55:15;;;;;;;2.75;1.80;;;;;;;20.56;36.69;99801.21;1746974;81;21117;-42
2021/06/03 07:57:44;;;;;;;5.92;2.17;;;;;;;20.59;36.01;99790.73;1761692;81;21546;-41
2021/06/03 08:00:14;;;;;;;4.70;2.10;;;;;;;20.63;35.80;99790.66;1764989;80;21024;-42
2021/06/03 08:02:45;;;;;;;5.65;1.90;;;;;;;20.65;35.03;99795.17;1770106;80;21133;-42
2021/06/03 08:05:14;;;;;;;3.40;1.82;;;;;;;20.72;36.01;99793.70;1774696;80;20988;-41
2021/06/03 08:07:41;;;;;;;5.30;2.00;;;;;;;20.79;34.86;99797.11;1766132;80;21833;-42
2021/06/03 08:10:11;;;;;;;4.00;1.75;;;;;;;20.84;34.64;99788.97;1779080;80;20964;-41
2021/06/03 08:12:38;;;;;;;8.58;2.27;;;;;;;20.90;34.67;99801.08;1765131;80;21016;-42
2021/06/03 08:15:07;;;;;;;4.90;1.87;;;;;;;20.98;33.79;99803.89;1771221;80;21478;-42
2021/06/03 08:17:36;;;;;;;4.42;2.20;;;;;;;21.05;34.24;99794.14;1805073;79;21828;-41
2021/06/03 08:20:08;;;;;;;2.47;1.95;;;;;;;21.10;34.99;99801.94;1805093;79;21488;-42
2021/06/03 08:22:35;;;;;;;5.53;1.60;;;;;;;21.19;35.04;99801.42;1753030;80;20996;-42
2021/06/03 08:25:03;;;;;;;5.80;1.70;;;;;;;21.25;33.38;99808.77;1757752;81;21046;-42
2021/06/03 08:27:29;;;;;;;7.15;2.00;;;;;;;21.30;34.68;99798.48;1756962;81;21553;-42
2021/06/03 08:29:56;;;;;;;7.70;2.12;;;;;;;21.30;34.26;99806.12;1769981;81;21980;-41
2021/06/03 08:32:23;;;;;;;5.65;2.10;;;;;;;21.26;33.79;99801.28;1767378;81;22217;-42
2021/06/03 08:34:49;;;;;;;4.95;1.98;;;;;;;21.27;33.50;99799.30;1762351;81;21454;-42
2021/06/03 08:37:18;;;;;;;3.83;1.90;;;;;;;21.31;32.78;99799.42;1761763;81;20972;-41
2021/06/03 08:39:45;;;;;;;3.20;1.62;;;;;;;21.31;33.26;99811.83;1763556;79;20919;-42
2021/06/03 08:42:13;;;;;;;3.60;1.80;;;;;;;21.28;32.11;99796.73;1760223;81;20952;-42
2021/06/03 08:44:39;;;;;;;4.45;1.90;;;;;;;21.25;33.12;99808.02;1766972;81;21784;-42
2021/06/03 08:47:08;;;;;;;6.45;2.05;;;;;;;21.29;33.09;99801.84;1748596;81;21031;-42
2021/06/03 08:49:39;;;;;;;7.10;1.77;;;;;;;21.39;32.96;99801.47;1760626;81;21031;-41
2021/06/03 08:52:07;;;;;;;8.73;1.92;;;;;;;21.47;32.95;99807.81;1764524;81;21486;-42
2021/06/03 08:54:36;;;;;;;5.05;1.82;;;;;;;21.54;31.57;99797.25;1767910;79;21027;-42
2021/06/03 08:57:08;;;;;;;7.55;2.27;;;;;;;21.62;32.23;99797.28;1760710;81;21067;-42
2021/06/03 08:59:36;;;;;;;2.70;1.90;;;;;;;21.68;32.06;99799.73;1769410;81;20996;-42
2021/06/03 09:02:04;;;;;;;6.80;1.90;;;;;;;21.77;32.08;99809.61;1765308;81;21509;-42
2021/06/03 09:04:31;;;;;;;4.12;1.75;;;;;;;21.83;32.19;99807.14;1759292;81;20989;-42
2021/06/03 09:06:58;;;;;;;4.65;2.10;;;;;;;21.85;32.66;99794.45;1790988;79;21072;-42
2021/06/03 09:09:26;;;;;;;7.78;2.00;;;;;;;21.89;33.80;99784.12;1801110;79;21119;-42
2021/06/03 09:12:14;;;;;;;5.33;1.90;;;;;;;21.83;31.27;99789.98;1798118;79;21645;-42
2021/06/03 09:14:42;;;;;;;6.62;2.02;;;;;;;21.63;32.02;99781.70;1796564;79;20964;-41
2021/06/03 09:17:10;;;;;;;4.53;2.10;;;;;;;21.43;33.75;99792.52;1775177;79;20997;-42
2021/06/03 09:19:51;;;;;;;4.33;1.92;;;;;;;21.24;33.48;99787.15;1782824;79;21044;-42
2021/06/03 09:22:38;;;;;;;;;;;;;;;21.06;33.32;99792.14;1847442;77;21090;-41
2021/06/03 09:25:35;;;;;;;3.60;1.80;;;;;;;20.84;34.20;99805.50;1829212;77;20135;-42
2021/06/03 09:28:24;;;;;;;7.78;1.77;;;;;;;20.60;34.84;99795.05;1844080;77;21056;-41
2021/06/03 09:31:23;;;;;;;7.72;1.90;;;;;;;20.54;35.06;99801.43;1832746;77;21060;-41
2021/06/03 09:34:11;;;;;;;6.20;1.80;;;;;;;20.59;36.21;99805.88;1833676;77;20988;-42
2021/06/03 10:29:19;;;;;;;2.87;1.85;;;;;;;21.68;34.26;99806.04;1782265;79;21991;-41
2021/06/03 10:31:47;;;;;;;4.65;1.90;;;;;;;21.62;34.98;99816.00;1762904;80;21561;-41
2021/06/03 10:34:13;;;;;;;2.42;1.90;;;;;;;21.49;35.63;99812.31;1775539;80;21133;-42
2021/06/03 10:36:42;;;;;;;4.70;1.80;;;;;;;21.45;34.64;99812.95;1752245;81;21044;-42
2021/06/03 10:39:10;;;;;;;5.78;2.50;;;;;;;21.46;33.87;99808.22;1748032;81;21024;-42
2021/06/03 10:41:36;;;;;;;5.95;2.12;;;;;;;21.64;34.25;99808.66;1746874;81;21530;-42
2021/06/03 10:44:07;;;;;;;3.47;2.20;;;;;;;21.95;35.69;99801.78;1750021;81;20939;-42
2021/06/03 10:46:35;;;;;;;2.95;1.90;;;;;;;22.39;34.17;99799.67;1751546;81;21087;-42
2021/06/03 10:49:03;;;;;;;8.50;2.00;;;;;;;22.58;34.61;99808.51;1752860;80;20991;-42
2021/06/03 10:51:30;;;;;;;3.83;1.55;;;;;;;22.75;34.40;99811.48;1753809;80;21012;-42
2021/06/03 10:53:56;;;;;;;6.22;2.08;;;;;;;22.77;31.31;99802.77;1747092;80;20968;-41
2021/06/03 10:56:27;;;;;;;3.55;1.80;;;;;;;22.71;33.22;99790.06;1748793;80;21092;-41
2021/06/03 10:58:53;;;;;;;6.45;2.02;;;;;;;22.69;30.98;99793.06;1749609;80;20945;-41
2021/06/03 11:01:22;;;;;;;4.72;1.80;;;;;;;22.46;31.01;99805.05;1734682;80;21034;-41
2021/06/03 11:04:04;;;;;;;5.58;2.10;;;;;;;22.43;32.08;99797.59;1749967;80;20873;-41
2021/06/03 11:06:28;;;;;;;3.58;2.00;;;;;;;22.55;33.70;99787.27;1749854;80;21591;-41
2021/06/03 11:09:02;;;;;;;5.67;2.50;;;;;;;22.75;33.36;99778.31;1740749;80;21520;-41
2021/06/03 11:11:37;;;;;;;3.20;1.92;;;;;;;22.81;31.88;99790.41;1739572;81;21130;-41
2021/06/03 11:14:11;;;;;;;10.00;2.25;;;;;;;22.79;31.81;99791.47;1747036;80;21012;-41
2021/06/03 11:16:49;;;;;;;6.42;1.90;;;;;;;22.84;31.73;99779.89;1751294;81;20925;-41
2021/06/03 11:19:23;;;;;;;3.60;1.90;;;;;;;23.05;31.86;99787.47;1748773;81;20981;-41
2021/06/03 11:21:55;;;;;;;3.27;1.80;;;;;;;23.15;30.39;99794.13;1746596;80;21581;-41
2021/06/03 11:24:36;;;;;;;4.40;1.80;;;;;;;23.16;30.63;99794.30;1751890;80;21151;-41
2021/06/03 11:27:12;;;;;;;10.68;1.90;;;;;;;23.23;32.77;99797.50;1790048;78;21007;-41
2021/06/03 11:29:54;;;;;;;5.28;1.80;;;;;;;23.39;31.54;99792.70;1746662;81;21044;-41
2021/06/03 11:32:31;;;;;;;4.30;1.90;;;;;;;23.48;31.95;99787.20;1737677;81;21526;-42
2021/06/03 11:35:02;;;;;;;5.37;1.80;;;;;;;23.51;31.29;99794.02;1745906;81;21107;-41
2021/06/03 11:37:41;;;;;;;;;;;;;;;23.48;31.29;99793.48;1732616;81;21102;-42
2021/06/03 11:40:17;;;;;;;4.00;2.25;;;;;;;23.57;30.75;99788.13;1785695;79;20115;-41
2021/06/03 11:42:49;;;;;;;5.15;1.98;;;;;;;23.61;31.19;99792.16;1777279;79;21002;-41
2021/06/03 11:45:33;;;;;;;7.47;1.90;;;;;;;23.53;29.63;99788.80;1792828;79;21503;-42
2021/06/03 11:48:12;;;;;;;2.02;1.62;;;;;;;23.29;30.69;99802.66;1794857;79;21042;-42
2021/06/03 11:50:42;;;;;;;6.95;1.70;;;;;;;23.09;31.57;99800.63;1775029;80;21126;-41
2021/06/03 11:53:13;;;;;;;3.35;1.90;;;;;;;22.88;32.53;99802.70;1768066;79;21001;-41
2021/06/03 11:55:56;;;;;;;3.10;2.05;;;;;;;22.91;32.77;99799.06;1773394;78;20981;-44
2021/06/03 11:58:34;;;;;;;4.22;2.12;;;;;;;23.16;31.33;99796.28;1780990;80;21089;-45
2021/06/03 12:01:19;;;;;;;3.67;2.12;;;;;;;23.50;31.62;99792.45;1742662;81;21516;-45
2021/06/03 12:03:50;;;;;;;6.97;3.15;;;;;;;23.83;32.18;99786.97;1743335;81;21097;-44
2021/06/03 12:06:32;;;;;;;;;;;;;;;24.07;31.71;99794.39;1732389;82;20976;-45
2021/06/03 12:09:02;;;;;;;5.95;2.10;;;;;;;24.11;30.55;99795.67;1729989;82;20586;-44
2021/06/03 12:11:44;;;;;;;3.33;1.65;;;;;;;23.89;31.13;99791.38;1729794;82;21084;-44
2021/06/03 12:14:19;;;;;;;4.65;1.98;;;;;;;23.92;29.36;99799.39;1752575;80;20969;-44
2021/06/03 12:16:57;;;;;;;4.92;1.70;;;;;;;24.03;29.24;99797.10;1750795;80;20980;-44
2021/06/03 12:19:28;;;;;;;5.92;1.82;;;;;;;24.06;29.27;99797.63;1759388;80;20973;-44
2021/06/03 12:22:07;;;;;;;5.45;2.47;;;;;;;24.20;30.04;99790.31;1786527;80;20958;-44
2021/06/03 12:24:43;;;;;;;4.08;2.15;;;;;;;24.35;29.59;99799.72;1759740;80;21269;-45
2021/06/03 12:27:40;;;;;;;3.15;1.98;;;;;;;24.46;30.21;99793.25;1778926;78;20954;-44
2021/06/03 12:30:21;;;;;;;4.53;2.00;;;;;;;24.57;29.93;99792.32;1790189;78;21571;-44
2021/06/03 12:33:10;;;;;;;3.80;2.00;;;;;;;24.74;29.03;99772.80;1766622;79;21673;-44
2021/06/03 12:35:58;;;;;;;3.40;1.70;;;;;;;24.71;29.34;99787.54;1758952;81;21556;-44
2021/06/03 12:38:38;;;;;;;4.87;1.90;;;;;;;24.27;28.52;99780.38;1750380;77;63034;-45
2021/06/03 12:41:30;;;;;;;4.08;1.70;;;;;;;24.01;29.62;99791.24;1741986;81;21824;-45
2021/06/03 12:44:08;;;;;;;6.20;2.00;;;;;;;24.00;30.31;99779.38;1735543;82;21143;-45